createdAt,value
2019-05-23T00:00:27.271Z,21.700001
2019-05-23T00:01:28.323Z,21.9
2019-05-23T00:02:27.379Z,24
2019-05-23T00:03:27.442Z,23.200001
2019-05-23T00:04:27.515Z,22.799999
2019-05-23T00:05:27.600Z,24.200001
2019-05-23T00:06:27.660Z,22.4
2019-05-23T00:07:27.724Z,23.6
2019-05-23T00:08:28.012Z,23.1
2019-05-23T00:09:27.849Z,22.6
2019-05-23T00:10:27.963Z,23.1
2019-05-23T00:11:28.064Z,22.700001
2019-05-23T00:12:28.130Z,23.9
2019-05-23T00:13:28.278Z,23.799999
2019-05-23T00:14:28.343Z,24.299999
2019-05-23T00:15:29.453Z,24
2019-05-23T00:16:28.499Z,25.1
2019-05-23T00:17:28.558Z,24.4
2019-05-23T00:18:28.603Z,23.799999
2019-05-23T00:19:29.669Z,23.9
2019-05-23T00:20:28.764Z,23.6
2019-05-23T00:21:28.855Z,24.4
2019-05-23T00:22:29.969Z,23.6
2019-05-23T00:23:29.047Z,23.299999
2019-05-23T00:24:29.108Z,22.4
2019-05-23T00:25:30.175Z,22.9
2019-05-23T00:26:29.261Z,23.799999
2019-05-23T00:27:29.340Z,23.1
2019-05-23T00:28:29.409Z,23.4
2019-05-23T00:29:29.463Z,23.200001
2019-05-23T00:30:30.516Z,23.4
2019-05-23T00:31:29.830Z,23.5
2019-05-23T00:32:29.718Z,22.4
2019-05-23T00:33:29.783Z,23.700001
2019-05-23T00:34:29.840Z,23.799999
2019-05-23T00:35:29.928Z,23.4
2019-05-23T00:36:30.027Z,22.700001
2019-05-23T00:37:31.113Z,23.200001
2019-05-23T00:38:30.189Z,23.9
2019-05-23T00:39:30.394Z,23
2019-05-23T00:40:30.290Z,24.1
2019-05-23T00:41:30.381Z,23.6
2019-05-23T00:42:31.429Z,23.200001
2019-05-23T00:43:30.489Z,24.6
2019-05-23T00:44:31.600Z,24
2019-05-23T00:45:30.676Z,24.799999
2019-05-23T00:46:30.800Z,24
2019-05-23T00:47:30.898Z,24.299999
2019-05-23T00:48:30.959Z,23.6
2019-05-23T00:49:31.024Z,24.5
2019-05-23T00:50:31.088Z,23.200001
2019-05-23T00:51:31.173Z,23.9
2019-05-23T00:52:31.264Z,24.1
2019-05-23T00:53:32.328Z,24.5
2019-05-23T00:54:31.386Z,22.6
2019-05-23T00:55:31.471Z,23.1
2019-05-23T00:56:31.557Z,22.799999
2019-05-23T00:57:31.610Z,23.700001
2019-05-23T00:58:31.679Z,22.799999
2019-05-23T00:59:31.709Z,23
2019-05-23T01:00:31.768Z,23.4
2019-05-23T01:01:31.891Z,24.799999
2019-05-23T01:02:32.944Z,23.5
2019-05-23T01:03:31.996Z,24.299999
2019-05-23T01:04:32.053Z,22.9
2019-05-23T01:05:32.117Z,22.200001
2019-05-23T01:06:32.197Z,22.5
2019-05-23T01:07:32.285Z,22.6
2019-05-23T01:08:32.368Z,22.4
2019-05-23T01:09:32.522Z,21.6
2019-05-23T01:10:32.580Z,20.700001
2019-05-23T01:11:32.651Z,21.5
2019-05-23T01:12:32.757Z,20.9
2019-05-23T01:13:32.814Z,21.799999
2019-05-23T01:14:32.905Z,20.799999
2019-05-23T01:15:32.999Z,22
2019-05-23T01:16:33.099Z,22.9
2019-05-23T01:17:33.206Z,24.9
2019-05-23T01:18:33.267Z,23
2019-05-23T01:19:33.346Z,21.6
2019-05-23T01:20:33.435Z,21.5
2019-05-23T01:21:33.492Z,21.6
2019-05-23T01:22:33.647Z,22.4
2019-05-23T01:23:33.582Z,21.700001
2019-05-23T01:24:34.670Z,22.6
2019-05-23T01:25:33.778Z,22.5
2019-05-23T01:26:33.881Z,22.700001
2019-05-23T01:27:35.016Z,21.700001
2019-05-23T01:28:34.091Z,21.9
2019-05-23T01:29:37.535Z,22.4
2019-05-23T01:30:34.187Z,22.1
2019-05-23T01:31:34.254Z,22.299999
2019-05-23T01:32:34.335Z,22.6
2019-05-23T01:33:34.518Z,22.6
2019-05-23T01:34:34.408Z,21.4
2019-05-23T01:35:34.474Z,22.200001
2019-05-23T01:36:35.526Z,21.5
2019-05-23T01:37:34.585Z,23.200001
2019-05-23T01:38:34.686Z,23
2019-05-23T01:39:34.733Z,23
2019-05-23T01:40:34.789Z,22.5
2019-05-23T01:41:34.896Z,23.6
2019-05-23T01:42:34.962Z,22.6
2019-05-23T01:43:35.057Z,22.799999
2019-05-23T01:44:36.099Z,22.9
2019-05-23T01:45:35.171Z,23.5
2019-05-23T01:46:35.221Z,23.200001
2019-05-23T01:47:35.287Z,23.299999
2019-05-23T01:48:35.404Z,23.4
2019-05-23T01:49:35.586Z,22.4
2019-05-23T01:50:36.553Z,22.6
2019-05-23T01:51:35.645Z,22
2019-05-23T01:52:36.698Z,23.799999
2019-05-23T01:53:35.826Z,22.4
2019-05-23T01:54:35.908Z,24.1
2019-05-23T01:55:35.971Z,24.5
2019-05-23T01:56:36.132Z,23.700001
2019-05-23T01:57:36.195Z,24.1
2019-05-23T01:58:36.313Z,23.799999
2019-05-23T01:59:36.385Z,23.299999
2019-05-23T02:00:36.442Z,22.9
2019-05-23T02:01:36.497Z,24.200001
2019-05-23T02:02:36.551Z,24.4
2019-05-23T02:03:36.654Z,24.4
2019-05-23T02:04:36.716Z,24.9
2019-05-23T02:05:36.789Z,24.9
2019-05-23T02:06:36.839Z,24.700001
2019-05-23T02:07:36.964Z,25.700001
2019-05-23T02:08:37.234Z,27
2019-05-23T02:09:37.126Z,25.9
2019-05-23T02:10:37.182Z,26.799999
2019-05-23T02:11:37.243Z,25.9
2019-05-23T02:12:37.314Z,25.9
2019-05-23T02:13:37.414Z,25.299999
2019-05-23T02:14:37.465Z,26
2019-05-23T02:15:37.527Z,27.299999
2019-05-23T02:16:37.592Z,26
2019-05-23T02:17:37.661Z,26.6
2019-05-23T02:18:38.760Z,25.9
2019-05-23T02:21:38.073Z,27.6
2019-05-23T02:22:38.124Z,26.299999
2019-05-23T02:23:38.172Z,26.700001
2019-05-23T02:24:38.298Z,26.200001
2019-05-23T02:25:38.347Z,26.700001
2019-05-23T02:26:38.421Z,26.299999
2019-05-23T02:27:38.572Z,27.1
2019-05-23T02:28:38.630Z,27.5
2019-05-23T02:29:38.747Z,27.5
2019-05-23T02:30:38.789Z,27.5
2019-05-23T02:31:38.843Z,26.1
2019-05-23T02:32:38.898Z,27.5
2019-05-23T02:33:38.962Z,26.700001
2019-05-23T02:34:39.044Z,25.700001
2019-05-23T02:35:39.127Z,27.9
2019-05-23T02:36:39.226Z,26.1
2019-05-23T02:37:39.316Z,24.799999
2019-05-23T02:38:39.381Z,27.200001
2019-05-23T02:39:39.450Z,27.1
2019-05-23T02:40:39.499Z,27.200001
2019-05-23T02:41:39.569Z,25.1
2019-05-23T02:42:39.620Z,26.6
2019-05-23T02:43:39.686Z,27.9
2019-05-23T02:44:39.783Z,25.700001
2019-05-23T02:45:39.858Z,26.6
2019-05-23T02:46:39.909Z,25.200001
2019-05-23T02:47:40.134Z,27.200001
2019-05-23T02:48:39.981Z,26.9
2019-05-23T02:49:40.061Z,28
2019-05-23T02:50:40.139Z,26.5
2019-05-23T02:51:40.212Z,27.4
2019-05-23T02:52:40.273Z,27.5
2019-05-23T02:53:40.328Z,26.700001
2019-05-23T02:54:40.431Z,26.799999
2019-05-23T02:55:40.505Z,27.799999
2019-05-23T02:56:40.560Z,27.6
2019-05-23T02:57:40.606Z,28
2019-05-23T02:58:41.649Z,26.9
2019-05-23T02:59:40.701Z,26.6
2019-05-23T03:00:53.060Z,26.5
2019-05-23T03:01:40.791Z,27.5
2019-05-23T03:02:40.866Z,27.6
2019-05-23T03:03:40.918Z,26.299999
2019-05-23T03:04:41.105Z,27
2019-05-23T03:05:41.174Z,26.700001
2019-05-23T03:06:41.305Z,26.9
2019-05-23T03:07:41.371Z,27.1
2019-05-23T03:08:41.417Z,27.4
2019-05-23T03:09:41.488Z,27.1
2019-05-23T03:10:41.580Z,27.200001
2019-05-23T03:11:41.642Z,28
2019-05-23T03:12:41.700Z,28.6
2019-05-23T03:13:41.838Z,28.1
2019-05-23T03:14:41.939Z,29.200001
2019-05-23T03:15:42.042Z,27.799999
2019-05-23T03:16:42.116Z,28
2019-05-23T03:17:42.188Z,28.9
2019-05-23T03:18:43.232Z,28.6
2019-05-23T03:19:42.293Z,28.9
2019-05-23T03:20:42.402Z,27.5
2019-05-23T03:21:42.472Z,28.799999
2019-05-23T03:22:42.516Z,28.6
2019-05-23T03:23:42.589Z,28.6
2019-05-23T03:24:42.728Z,29
2019-05-23T03:25:42.815Z,29.6
2019-05-23T03:26:42.872Z,30.200001
2019-05-23T03:27:42.961Z,28.9
2019-05-23T03:28:43.057Z,29.6
2019-05-23T03:29:43.123Z,29.299999
2019-05-23T03:30:43.185Z,29.1
2019-05-23T03:31:43.234Z,30.5
2019-05-23T03:32:43.486Z,30.200001
2019-05-23T03:33:43.373Z,29.799999
2019-05-23T03:34:43.448Z,31
2019-05-23T03:35:43.502Z,30.9
2019-05-23T03:36:43.661Z,30.5
2019-05-23T03:37:43.657Z,30.5
2019-05-23T03:38:43.642Z,31.299999
2019-05-23T03:39:43.781Z,31.5
2019-05-23T03:40:44.916Z,30.9
2019-05-23T03:41:43.920Z,32.5
2019-05-23T03:42:44.053Z,31.9
2019-05-23T03:43:45.035Z,32.099998
2019-05-23T03:44:44.010Z,32.799999
2019-05-23T03:45:44.108Z,32.5
2019-05-23T03:46:44.297Z,32.599998
2019-05-23T03:47:44.299Z,33.400002
2019-05-23T03:48:44.324Z,33.5
2019-05-23T03:49:44.363Z,34.5
2019-05-23T03:50:44.405Z,32.599998
2019-05-23T03:51:44.411Z,32.599998
2019-05-23T03:52:44.409Z,32
2019-05-23T03:53:44.410Z,32.799999
2019-05-23T03:54:44.414Z,32.099998
2019-05-23T03:55:44.431Z,32.5
2019-05-23T03:56:44.501Z,33.299999
2019-05-23T03:57:44.509Z,34.299999
2019-05-23T03:58:44.555Z,35.299999
2019-05-23T03:59:44.556Z,35.400002
2019-05-23T04:00:44.569Z,35.700001
2019-05-23T04:01:48.154Z,34.400002
2019-05-23T04:02:45.885Z,33.400002
2019-05-23T04:03:44.685Z,33.900002
2019-05-23T04:04:44.856Z,35
2019-05-23T04:05:44.863Z,33.5
2019-05-23T04:06:44.860Z,31.799999
2019-05-23T04:07:44.886Z,33.599998
2019-05-23T04:08:44.896Z,33.799999
2019-05-23T04:09:44.910Z,34.400002
2019-05-23T04:10:44.903Z,36.099998
2019-05-23T04:11:46.066Z,33
2019-05-23T04:12:46.246Z,33.799999
2019-05-23T04:13:45.241Z,34.200001
2019-05-23T04:14:45.252Z,34.299999
2019-05-23T04:15:45.301Z,33.700001
2019-05-23T04:16:45.302Z,33.200001
2019-05-23T04:17:45.325Z,33
2019-05-23T04:18:45.356Z,33.299999
2019-05-23T04:19:45.361Z,32.099998
2019-05-23T04:20:45.369Z,32.900002
2019-05-23T04:21:45.380Z,32.299999
2019-05-23T04:22:45.405Z,32.599998
2019-05-23T04:23:45.595Z,32.5
2019-05-23T04:24:45.434Z,32.900002
2019-05-23T04:25:45.633Z,33
2019-05-23T04:26:45.674Z,32.099998
2019-05-23T04:27:45.713Z,32
2019-05-23T04:28:45.726Z,32.400002
2019-05-23T04:29:45.780Z,32.099998
2019-05-23T04:30:45.871Z,32.400002
2019-05-23T04:31:45.885Z,31.9
2019-05-23T04:32:47.069Z,32.400002
2019-05-23T04:33:45.923Z,31.700001
2019-05-23T04:34:45.978Z,31.6
2019-05-23T04:35:45.978Z,32
2019-05-23T04:36:45.996Z,31.6
2019-05-23T04:37:45.996Z,31.700001
2019-05-23T04:38:47.084Z,32.099998
2019-05-23T04:39:46.077Z,30.5
2019-05-23T04:40:46.072Z,30.299999
2019-05-23T04:41:46.071Z,31.9
2019-05-23T04:42:46.070Z,30.9
2019-05-23T04:43:46.117Z,31.299999
2019-05-23T04:44:46.104Z,31.1
2019-05-23T04:45:46.312Z,30.200001
2019-05-23T04:46:46.335Z,30.700001
2019-05-23T04:47:46.367Z,30.299999
2019-05-23T04:48:46.401Z,31.200001
2019-05-23T04:49:46.417Z,30.4
2019-05-23T04:50:46.415Z,30.5
2019-05-23T04:51:46.441Z,30.799999
2019-05-23T04:52:46.440Z,30.200001
2019-05-23T04:53:46.473Z,31.5
2019-05-23T04:54:46.492Z,29.799999
2019-05-23T04:55:46.485Z,29.799999
2019-05-23T04:56:46.492Z,29.799999
2019-05-23T04:57:46.483Z,30.6
2019-05-23T04:58:46.544Z,30.299999
2019-05-23T04:59:46.559Z,30.299999
2019-05-23T05:00:46.560Z,30.5
2019-05-23T05:01:46.581Z,28.799999
2019-05-23T05:02:46.585Z,30.200001
2019-05-23T05:03:46.631Z,29.4
2019-05-23T05:04:46.677Z,29
2019-05-23T05:05:46.715Z,29.5
2019-05-23T05:06:46.731Z,29.4
2019-05-23T05:07:46.761Z,29.5
2019-05-23T05:08:46.776Z,29.200001
2019-05-23T05:09:46.800Z,29.200001
2019-05-23T05:10:46.828Z,29.200001
2019-05-23T05:11:46.820Z,29.6
2019-05-23T05:12:46.830Z,30.6
2019-05-23T05:13:46.837Z,29.4
2019-05-23T05:14:46.871Z,28.799999
2019-05-23T05:15:46.878Z,27.799999
2019-05-23T05:16:46.881Z,28.200001
2019-05-23T05:17:46.874Z,28.200001
2019-05-23T05:18:46.870Z,28.5
2019-05-23T05:19:46.922Z,28.799999
2019-05-23T05:20:46.927Z,28.5
2019-05-23T05:21:46.941Z,28.200001
2019-05-23T05:22:47.123Z,28
2019-05-23T05:23:47.190Z,27.6
2019-05-23T05:24:47.226Z,29.6
2019-05-23T05:25:47.196Z,26.9
2019-05-23T05:26:47.211Z,27.799999
2019-05-23T05:27:47.234Z,27.200001
2019-05-23T05:28:47.213Z,28.299999
2019-05-23T05:29:47.280Z,27.299999
2019-05-23T05:30:47.323Z,28
2019-05-23T05:31:47.332Z,26.299999
2019-05-23T05:32:47.318Z,26.5
2019-05-23T05:33:47.373Z,25.799999
2019-05-23T05:34:47.422Z,25.700001
2019-05-23T05:35:47.456Z,26.6
2019-05-23T05:36:47.464Z,26.4
2019-05-23T05:37:47.493Z,25.700001
2019-05-23T05:38:47.516Z,26.1
2019-05-23T05:39:47.544Z,24.4
2019-05-23T05:40:47.564Z,25.299999
2019-05-23T05:41:47.586Z,25.1
2019-05-23T05:42:47.589Z,24.700001
2019-05-23T05:43:47.604Z,25.799999
2019-05-23T05:44:47.612Z,25.200001
2019-05-23T05:45:47.704Z,25.700001
2019-05-23T05:46:47.751Z,23.799999
2019-05-23T05:47:47.769Z,23.6
2019-05-23T05:48:47.790Z,24.299999
2019-05-23T05:49:47.858Z,24
2019-05-23T05:50:48.074Z,23.6
2019-05-23T05:51:48.129Z,24
2019-05-23T05:52:48.154Z,22.799999
2019-05-23T05:53:48.188Z,23.4
2019-05-23T05:54:48.169Z,23
2019-05-23T05:55:48.211Z,22.299999
2019-05-23T05:56:48.246Z,22.799999
2019-05-23T05:57:48.244Z,23
2019-05-23T05:58:48.289Z,22.799999
2019-05-23T05:59:48.340Z,22.700001
2019-05-23T06:00:48.395Z,22.6
2019-05-23T06:01:48.455Z,22.6
2019-05-23T06:03:03.264Z,22.299999
2019-05-23T06:03:49.453Z,22.200001
2019-05-23T06:04:48.486Z,22.4
2019-05-23T06:05:48.578Z,22.9
2019-05-23T06:21:50.585Z,20.4
2019-05-23T06:22:49.595Z,21.6
2019-05-23T06:23:49.628Z,20.9
2019-05-23T06:24:53.578Z,20.299999
2019-05-23T06:25:49.676Z,20.700001
2019-05-23T06:26:49.751Z,19.799999
2019-05-23T06:27:49.784Z,21
2019-05-23T06:28:49.954Z,20.6
2019-05-23T06:29:49.860Z,20.1
2019-05-23T06:30:49.884Z,20.6
2019-05-23T06:31:49.920Z,20.6
2019-05-23T06:32:49.952Z,20.299999
2019-05-23T06:33:49.958Z,20.700001
2019-05-23T06:34:49.969Z,20.299999
2019-05-23T06:35:49.973Z,20.9
2019-05-23T06:36:50.018Z,20.700001
2019-05-23T06:37:50.102Z,21.4
2019-05-23T06:38:50.116Z,20
2019-05-23T06:39:50.122Z,20.299999
2019-05-23T06:40:50.144Z,20.200001
2019-05-23T06:41:50.207Z,20.5
2019-05-23T06:42:50.992Z,20
2019-05-23T06:43:50.243Z,20.6
2019-05-23T06:44:50.276Z,20.799999
2019-05-23T06:45:50.287Z,19.9
2019-05-23T06:46:51.281Z,19.700001
2019-05-23T06:47:50.330Z,19.6
2019-05-23T06:48:50.362Z,20.200001
2019-05-23T06:49:50.443Z,20.1
2019-05-23T06:50:50.467Z,20.200001
2019-05-23T06:51:50.620Z,20.200001
2019-05-23T06:52:50.661Z,20.9
2019-05-23T06:53:50.668Z,19.9
2019-05-23T06:54:50.756Z,20.200001
2019-05-23T06:55:50.682Z,19.799999
2019-05-23T06:56:50.751Z,20.700001
2019-05-23T06:57:51.104Z,20.6
2019-05-23T06:58:50.787Z,20.799999
2019-05-23T06:59:50.793Z,20.9
2019-05-23T07:00:50.818Z,20.6
2019-05-23T07:01:50.840Z,21.299999
2019-05-23T07:02:50.979Z,21.4
2019-05-23T07:03:50.942Z,21.1
2019-05-23T07:04:50.957Z,21.200001
2019-05-23T07:05:50.965Z,21.6
2019-05-23T07:06:50.995Z,20.6
2019-05-23T07:07:51.077Z,21.299999
2019-05-23T07:08:51.085Z,21.5
2019-05-23T07:09:51.124Z,22
2019-05-23T07:10:51.151Z,20.6
2019-05-23T07:11:51.158Z,21.200001
2019-05-23T07:12:51.216Z,20.5
2019-05-23T07:13:51.252Z,21.299999
2019-05-23T07:14:51.273Z,21.6
2019-05-23T07:15:51.278Z,21.700001
2019-05-23T07:16:51.339Z,21.299999
2019-05-23T07:17:51.458Z,20.700001
2019-05-23T07:18:51.507Z,22.1
2019-05-23T07:19:51.530Z,22.1
2019-05-23T07:20:51.531Z,22.5
2019-05-23T07:21:51.537Z,22.9
2019-05-23T07:22:51.561Z,22.1
2019-05-23T07:23:51.617Z,22.5
2019-05-23T07:24:57.825Z,22.4
2019-05-23T07:25:52.721Z,22.9
2019-05-23T07:26:51.823Z,22.799999
2019-05-23T07:27:53.163Z,23
2019-05-23T07:28:52.093Z,23
2019-05-23T07:29:52.018Z,22.5
2019-05-23T07:30:52.159Z,25.299999
2019-05-23T07:31:52.314Z,23.700001
2019-05-23T07:32:52.447Z,23.4
2019-05-23T07:34:01.505Z,24.1
2019-05-23T07:34:53.648Z,25.200001
2019-05-23T07:35:52.749Z,25
2019-05-23T07:36:52.877Z,23.9
2019-05-23T07:37:52.985Z,24.299999
2019-05-23T07:38:53.123Z,24.1
2019-05-23T07:39:53.245Z,24.1
2019-05-23T07:40:53.373Z,23.700001
2019-05-23T07:41:53.501Z,23.9
2019-05-23T07:42:53.624Z,24.5
2019-05-23T07:43:53.767Z,24.4
2019-05-23T07:44:53.859Z,24.299999
2019-05-23T07:45:53.973Z,24
2019-05-23T07:46:54.130Z,23.6
2019-05-23T07:47:54.401Z,23.1
2019-05-23T07:48:54.381Z,23.5
2019-05-23T07:49:54.374Z,23.700001
2019-05-23T07:50:54.479Z,24.200001
2019-05-23T07:51:54.611Z,24.4
2019-05-23T07:52:54.735Z,23.299999
2019-05-23T07:53:54.870Z,23.5
2019-05-23T07:54:55.075Z,24
2019-05-23T07:55:55.062Z,24.299999
2019-05-23T07:56:55.167Z,24.200001
2019-05-23T07:57:55.281Z,25.1
2019-05-23T07:58:55.430Z,25.299999
2019-05-23T07:59:55.625Z,25.1
2019-05-23T08:00:55.667Z,25.9
2019-05-23T08:01:55.598Z,26
2019-05-23T08:02:56.707Z,26.299999
2019-05-23T08:03:55.855Z,25.799999
2019-05-23T08:04:56.028Z,25.799999
2019-05-23T08:05:55.999Z,25.5
2019-05-23T08:06:56.183Z,25.5
2019-05-23T08:07:56.488Z,25.700001
2019-05-23T08:08:56.113Z,26.200001
2019-05-23T08:09:56.244Z,26.6
2019-05-23T08:10:56.502Z,26.700001
2019-05-23T08:11:56.438Z,26.1
2019-05-23T08:12:56.552Z,26.5
2019-05-23T08:13:56.669Z,26.4
2019-05-23T08:14:56.823Z,26
2019-05-23T08:15:56.820Z,25.200001
2019-05-23T08:16:56.921Z,26.700001
2019-05-23T08:17:57.044Z,25.5
2019-05-23T08:18:57.173Z,25.700001
2019-05-23T08:19:57.254Z,25.9
2019-05-23T08:20:57.428Z,25.700001
2019-05-23T08:21:57.577Z,25.799999
2019-05-23T08:22:57.552Z,25.700001
2019-05-23T08:23:57.641Z,24.6
2019-05-23T08:24:57.640Z,25.299999
2019-05-23T08:25:57.718Z,24.6
2019-05-23T08:26:57.761Z,25.1
2019-05-23T08:27:57.776Z,24.299999
2019-05-23T08:29:23.985Z,24
2019-05-23T08:30:02.015Z,22.200001
2019-05-23T08:30:59.125Z,22.799999
2019-05-23T08:31:58.106Z,21.299999
2019-05-23T08:32:58.263Z,19.6
2019-05-23T08:33:58.385Z,20.299999
2019-05-23T08:34:58.509Z,21
2019-05-23T08:35:58.533Z,19.9
2019-05-23T08:36:58.492Z,19.5
2019-05-23T08:37:58.650Z,19.5
2019-05-23T08:38:58.792Z,19.799999
2019-05-23T08:39:58.922Z,18.200001
2019-05-23T08:40:59.065Z,19
2019-05-23T08:41:59.014Z,21.1
2019-05-23T08:42:59.118Z,19.1
2019-05-23T08:43:59.200Z,19.4
2019-05-23T08:44:59.213Z,19.299999
2019-05-23T08:45:59.302Z,16.4
2019-05-23T08:46:59.326Z,15.4
2019-05-23T08:47:59.328Z,14.9
2019-05-23T08:48:59.325Z,12.8
2019-05-23T08:49:59.367Z,12.4
2019-05-23T08:50:59.413Z,12.7
2019-05-23T08:51:59.424Z,11.4
2019-05-23T08:52:59.429Z,8.6
2019-05-23T08:53:59.443Z,7.6
2019-05-23T08:54:59.554Z,7.4
2019-05-23T08:55:59.612Z,8.3
2019-05-23T08:56:59.631Z,7
2019-05-23T08:57:59.660Z,9.2
2019-05-23T08:58:59.666Z,10.6
2019-05-23T08:59:59.843Z,10.7
2019-05-23T09:00:59.732Z,10.3
2019-05-23T09:01:59.754Z,10.9
2019-05-23T09:02:59.769Z,10.9
2019-05-23T09:03:59.873Z,11.1
2019-05-23T09:05:04.810Z,11.2
2019-05-23T09:06:00.113Z,11
2019-05-23T09:07:00.168Z,10.9
2019-05-23T09:08:00.238Z,9.5
2019-05-23T09:09:00.253Z,9.3
2019-05-23T09:10:00.288Z,8.7
2019-05-23T09:11:00.284Z,8.8
2019-05-23T09:12:00.326Z,6
2019-05-23T09:13:00.364Z,5.9
2019-05-23T09:14:00.403Z,5.3
2019-05-23T09:15:00.415Z,5.6
2019-05-23T09:16:00.405Z,5.9
2019-05-23T09:17:00.604Z,6.6
2019-05-23T09:18:00.599Z,6.5
2019-05-23T09:19:00.607Z,6.8
2019-05-23T09:20:00.628Z,7.1
2019-05-23T09:21:00.651Z,6.6
2019-05-23T09:22:00.664Z,6.6
2019-05-23T09:23:00.686Z,6.4
2019-05-23T09:24:00.714Z,6.7
2019-05-23T09:25:00.714Z,7.2
2019-05-23T09:26:00.772Z,7.3
2019-05-23T09:27:00.803Z,7.1
2019-05-23T09:28:00.796Z,6.3
2019-05-23T09:29:00.838Z,6.6
2019-05-23T09:30:00.857Z,5.7
2019-05-23T09:31:00.841Z,6.3
2019-05-23T09:32:00.922Z,6.3
2019-05-23T09:33:00.935Z,6.5
2019-05-23T09:34:00.993Z,6.2
2019-05-23T09:35:01.000Z,6.8
2019-05-23T09:36:02.002Z,6.3
2019-05-23T09:39:01.036Z,5.8
2019-05-23T09:40:01.042Z,6.1
2019-05-23T09:41:01.079Z,6
2019-05-23T09:42:01.125Z,5.9
2019-05-23T09:43:01.152Z,5.7
2019-05-23T09:44:01.175Z,5.2
2019-05-23T09:45:01.200Z,5.3
2019-05-23T09:46:01.233Z,5.6
2019-05-23T09:47:01.292Z,5
2019-05-23T09:48:01.327Z,5.8
2019-05-23T09:49:01.336Z,5.5
2019-05-23T09:50:01.344Z,5.2
2019-05-23T09:51:01.354Z,5.9
2019-05-23T09:52:01.736Z,5.3
2019-05-23T09:53:01.524Z,5.3
2019-05-23T09:54:01.519Z,5.3
2019-05-23T09:55:01.523Z,4.8
2019-05-23T09:56:01.547Z,5.3
2019-05-23T09:57:01.540Z,5.6
2019-05-23T09:58:01.588Z,5.6
2019-05-23T09:59:01.636Z,5.2
2019-05-23T10:00:01.895Z,5.2
2019-05-23T10:01:01.827Z,5.8
2019-05-23T10:02:01.950Z,5.5
2019-05-23T10:03:01.998Z,5.7
2019-05-23T10:04:02.004Z,5.8
2019-05-23T10:05:02.088Z,5.5
2019-05-23T10:06:02.076Z,5.8
2019-05-23T10:07:02.103Z,5.6
2019-05-23T10:08:02.165Z,5.7
2019-05-23T10:09:02.211Z,5.8
2019-05-23T10:10:02.258Z,5.6
2019-05-23T10:11:02.284Z,5.3
2019-05-23T10:12:02.305Z,5.2
2019-05-23T10:13:02.373Z,5.3
2019-05-23T10:14:02.422Z,5.3
2019-05-23T10:15:02.439Z,5.1
2019-05-23T10:16:02.457Z,5.4
2019-05-23T10:17:02.494Z,5
2019-05-23T10:18:02.533Z,5.3
2019-05-23T10:19:02.582Z,5.7
2019-05-23T10:20:02.720Z,5.9
2019-05-23T10:21:02.973Z,6.2
2019-05-23T10:22:03.341Z,5.6
2019-05-23T10:23:02.910Z,6
2019-05-23T10:24:03.008Z,5.5
2019-05-23T10:25:03.125Z,5.8
2019-05-23T10:26:03.168Z,6.7
2019-05-23T10:27:03.234Z,6.6
2019-05-23T10:28:03.256Z,7.1
2019-05-23T10:29:03.468Z,6.7
2019-05-23T10:30:03.336Z,6.7
2019-05-23T10:31:03.398Z,6.7
2019-05-23T10:32:03.752Z,6.2
2019-05-23T10:33:10.804Z,6.3
2019-05-23T10:34:04.798Z,5.7
2019-05-23T10:35:03.970Z,6.6
2019-05-23T10:36:03.901Z,6
2019-05-23T10:37:03.948Z,5.3
2019-05-23T10:38:04.037Z,5.5
2019-05-23T10:39:04.185Z,5.6
2019-05-23T10:40:04.267Z,5.6
2019-05-23T10:41:04.293Z,5.5
2019-05-23T10:42:04.444Z,5.2
2019-05-23T10:43:04.619Z,6.2
2019-05-23T10:44:04.747Z,6.4
2019-05-23T10:45:04.593Z,6.8
2019-05-23T10:46:04.543Z,6.2
2019-05-23T10:47:04.588Z,6.3
2019-05-23T10:48:04.636Z,6.4
2019-05-23T10:49:04.711Z,6.5
2019-05-23T10:50:08.120Z,6.7
2019-05-23T10:51:05.740Z,6.1
2019-05-23T10:52:04.809Z,6.6
2019-05-23T10:53:05.017Z,6.3
2019-05-23T10:54:04.904Z,5.4
2019-05-23T10:55:04.950Z,5.8
2019-05-23T10:56:04.972Z,5.4
2019-05-23T10:57:05.025Z,5.2
2019-05-23T10:58:05.040Z,5.2
2019-05-23T10:59:05.121Z,5.5
2019-05-23T11:00:05.102Z,5.2
2019-05-23T11:01:06.102Z,5.7
2019-05-23T11:02:05.095Z,6
2019-05-23T11:03:05.126Z,6.1
2019-05-23T11:04:05.182Z,5.7
2019-05-23T11:05:12.605Z,6.1
2019-05-23T11:06:15.323Z,6
2019-05-23T11:07:06.388Z,5.7
2019-05-23T11:08:05.397Z,5.1
2019-05-23T11:09:05.437Z,5.3
2019-05-23T11:10:05.543Z,5.2
2019-05-23T11:11:05.551Z,5.6
2019-05-23T11:12:05.606Z,5.4
2019-05-23T11:13:05.627Z,5.5
2019-05-23T11:14:08.323Z,5.6
2019-05-23T11:15:06.700Z,5.6
2019-05-23T11:16:05.700Z,5.3
2019-05-23T11:17:05.723Z,5.6
2019-05-23T11:18:05.751Z,5.9
2019-05-23T11:19:05.750Z,6.1
2019-05-23T11:20:05.873Z,5.9
2019-05-23T11:21:05.887Z,5.8
2019-05-23T11:22:05.959Z,5.9
2019-05-23T11:23:05.913Z,5.4
2019-05-23T11:24:06.046Z,5.7
2019-05-23T11:25:06.137Z,5.3
2019-05-23T11:26:06.270Z,5.8
2019-05-23T11:27:06.383Z,6.3
2019-05-23T11:28:06.447Z,5.8
2019-05-23T11:29:06.596Z,6
2019-05-23T11:30:06.541Z,6
2019-05-23T11:31:06.564Z,5.9
2019-05-23T11:32:06.637Z,5.8
2019-05-23T11:33:06.772Z,5.7
2019-05-23T11:34:06.712Z,5.4
2019-05-23T11:35:06.716Z,5
2019-05-23T11:36:06.783Z,5.1
2019-05-23T11:37:06.830Z,5.6
2019-05-23T11:38:06.853Z,5.5
2019-05-23T11:39:06.860Z,5.7
2019-05-23T11:40:06.979Z,5.4
2019-05-23T11:41:07.073Z,5.5
2019-05-23T11:42:07.112Z,5.7
2019-05-23T11:43:07.120Z,5.4
2019-05-23T11:44:07.143Z,5.5
2019-05-23T11:45:07.165Z,5.7
2019-05-23T11:46:07.246Z,5.3
2019-05-23T11:47:07.248Z,6
2019-05-23T11:48:07.242Z,5.4
2019-05-23T11:49:07.250Z,6.2
2019-05-23T11:50:07.277Z,6.1
2019-05-23T11:51:07.325Z,6.2
2019-05-23T11:52:07.402Z,6.4
2019-05-23T11:53:07.377Z,6.1
2019-05-23T11:54:09.036Z,5.9
2019-05-23T11:55:07.534Z,6.7
2019-05-23T11:56:07.582Z,6.3
2019-05-23T11:57:07.628Z,6
2019-05-23T11:58:07.776Z,6.1
2019-05-23T11:59:07.776Z,6
2019-05-23T12:00:07.816Z,5.7
2019-05-23T12:01:07.913Z,6.1
2019-05-23T12:02:08.091Z,6
2019-05-23T12:03:07.945Z,5.8
2019-05-23T12:04:08.031Z,5.4
2019-05-23T12:05:08.076Z,4.7
2019-05-23T12:06:08.194Z,5.3
2019-05-23T12:07:08.228Z,5.6
2019-05-23T12:08:08.264Z,5.4
2019-05-23T12:09:08.293Z,5.4
2019-05-23T12:10:08.298Z,4.7
2019-05-23T12:11:08.325Z,5.1
2019-05-23T12:12:08.454Z,4.7
2019-05-23T12:13:08.472Z,5.1
2019-05-23T12:14:08.501Z,5.3
2019-05-23T12:15:08.519Z,5
2019-05-23T12:16:08.555Z,5
2019-05-23T12:17:08.615Z,4.7
2019-05-23T12:18:08.629Z,4.7
2019-05-23T12:19:08.631Z,5.1
2019-05-23T12:20:08.759Z,4.8
2019-05-23T12:21:08.706Z,5.3
2019-05-23T12:22:08.771Z,5.1
2019-05-23T12:23:10.905Z,5.6
2019-05-23T12:24:08.793Z,4.8
2019-05-23T12:25:20.546Z,5.2
2019-05-23T12:26:09.949Z,5
2019-05-23T12:27:09.008Z,5.2
2019-05-23T12:28:09.129Z,5.4
2019-05-23T12:29:09.134Z,4.9
2019-05-23T12:30:09.142Z,4.7
2019-05-23T12:31:09.243Z,4.9
2019-05-23T12:32:09.307Z,5
2019-05-23T12:33:09.352Z,5.2
2019-05-23T12:34:09.405Z,5.7
2019-05-23T12:35:11.686Z,5.2
2019-05-23T12:36:09.458Z,6.1
2019-05-23T12:37:19.391Z,5.9
2019-05-23T12:38:10.627Z,5.6
2019-05-23T12:39:09.639Z,5.7
2019-05-23T12:40:09.667Z,5.2
2019-05-23T12:41:09.699Z,5.8
2019-05-23T12:42:09.736Z,5.4
2019-05-23T12:43:09.790Z,5.3
2019-05-23T12:44:09.813Z,6.5
2019-05-23T12:45:09.845Z,6.2
2019-05-23T12:46:10.896Z,6.7
2019-05-23T12:47:09.871Z,6.3
2019-05-23T12:48:09.949Z,5.7
2019-05-23T12:49:09.971Z,5.4
2019-05-23T12:50:09.999Z,4.9
2019-05-23T12:51:10.054Z,5.1
2019-05-23T12:52:10.071Z,5
2019-05-23T12:53:10.137Z,5.5
2019-05-23T12:54:10.206Z,6.1
2019-05-23T12:55:10.218Z,6.1
2019-05-23T12:56:10.445Z,5.7
2019-05-23T12:57:10.365Z,6.3
2019-05-23T12:58:10.428Z,6.4
2019-05-23T12:59:10.427Z,5.8
2019-05-23T13:00:10.442Z,5.3
2019-05-23T13:01:10.439Z,5.2
2019-05-23T13:02:10.509Z,5.6
2019-05-23T13:03:10.554Z,5.3
2019-05-23T13:04:10.588Z,5
2019-05-23T13:07:10.693Z,6.3
2019-05-23T13:08:10.711Z,6.6
2019-05-23T13:09:10.760Z,6.3
2019-05-23T13:10:10.766Z,5.7
2019-05-23T13:11:10.873Z,5.9
2019-05-23T13:12:11.015Z,6.3
2019-05-23T13:13:12.077Z,6.9
2019-05-23T13:14:11.105Z,7.2
2019-05-23T13:15:11.190Z,6.8
2019-05-23T13:16:11.210Z,6.5
2019-05-23T13:17:11.256Z,6.3